Lena — V2FR — position and weather

sailwx.info

Track history (hours):
 
Tides and Currents Weather Stations Pressure Air Temp Water Temp Dewpoint Dewpoint Depression Visibility Wind Speed Wind Dir Waves Ship Positions

Lena

Last reported at 2015-Apr-27 13:18 UTC. Time now 2015-Apr-28 06:49 UTC.
Position N 02°06' E 102°06'.

Length 152 m; draft 6.6 m.

Type: Ship. MMSI: 304080808.

Date/timePositionNaut miles runAvg speedWind from/ knotsBaromVisibWave heightAir tempDewpointWater temp
2015-Apr-27 13:18N 02°06' E 102°06'3218.5
2015-Apr-27 11:33N 01°49' E 102°34'1818.3
2015-Apr-27 10:33N 01°41' E 102°50'6516.2
2015-Apr-27 06:33N 01°13' E 103°48'2 2.0
2015-Apr-27 05:18N 01°15' E 103°48'0 0.0
2015-Apr-27 04:27N 01°15' E 103°48'0 0.0
2015-Apr-27 03:30N 01°15' E 103°48'0 0.0
2015-Apr-27 02:26N 01°15' E 103°48'0 0.0
2015-Apr-27 01:32N 01°15' E 103°48'0 0.0
2015-Apr-27 00:28N 01°15' E 103°48'0 0.0
2015-Apr-26 23:28N 01°15' E 103°48'0 0.0
2015-Apr-26 22:33N 01°15' E 103°48'0 0.0
2015-Apr-26 21:33N 01°15' E 103°48'0 0.0
2015-Apr-26 20:33N 01°15' E 103°48'0 0.0
2015-Apr-26 19:32N 01°15' E 103°48'0 0.0
2015-Apr-26 18:32N 01°15' E 103°48'0 0.0
2015-Apr-26 17:19N 01°15' E 103°48'0 0.0
2015-Apr-26 16:31N 01°15' E 103°48'0 0.0
2015-Apr-26 15:30N 01°15' E 103°48'0 0.0
2015-Apr-26 14:33N 01°15' E 103°48'6 0.7
2015-Apr-26 06:23N 01°18' E 103°43'0 0.0
2015-Apr-26 05:17N 01°18' E 103°43'0 0.0
2015-Apr-26 04:33N 01°18' E 103°43'0 0.0
2015-Apr-26 03:26N 01°18' E 103°43'0 0.0
2015-Apr-26 02:33N 01°18' E 103°43'0 0.0
2015-Apr-26 01:33N 01°18' E 103°43'0 0.0
2015-Apr-26 00:33N 01°18' E 103°43'1 0.5
2015-Apr-25 23:30N 01°18' E 103°44'8 7.7
2015-Apr-25 22:29N 01°13' E 103°49'7 7.7
2015-Apr-25 21:33N 01°14' E 103°56'1211.6
2015-Apr-25 20:33N 01°17' E 104°08'  
2015-Apr-17 14:12N 24°53' E 119°41'1419.1
2015-Apr-17 13:28N 25°02' E 119°53'  
Track history (hours):
 
Tides and Currents Weather Stations Pressure Air Temp Water Temp Dewpoint Dewpoint Depression Visibility Wind Speed Wind Dir Waves Ship Positions

Lena

Last reported at 2015-Apr-27 13:18 UTC. Time now 2015-Apr-28 06:49 UTC.
Position N 02°06' E 102°06'.

Length 152 m; draft 6.6 m.

Type: Ship. MMSI: 304080808.

Date/timePositionNaut miles runAvg speedWind from/ knotsBaromVisibWave heightAir tempDewpointWater temp
2015-Apr-27 13:18N 02°06' E 102°06'3218.5
2015-Apr-27 11:33N 01°49' E 102°34'1818.3
2015-Apr-27 10:33N 01°41' E 102°50'6516.2
2015-Apr-27 06:33N 01°13' E 103°48'2 2.0
2015-Apr-27 05:18N 01°15' E 103°48'0 0.0
2015-Apr-27 04:27N 01°15' E 103°48'0 0.0
2015-Apr-27 03:30N 01°15' E 103°48'0 0.0
2015-Apr-27 02:26N 01°15' E 103°48'0 0.0
2015-Apr-27 01:32N 01°15' E 103°48'0 0.0
2015-Apr-27 00:28N 01°15' E 103°48'0 0.0
2015-Apr-26 23:28N 01°15' E 103°48'0 0.0
2015-Apr-26 22:33N 01°15' E 103°48'0 0.0
2015-Apr-26 21:33N 01°15' E 103°48'0 0.0
2015-Apr-26 20:33N 01°15' E 103°48'0 0.0
2015-Apr-26 19:32N 01°15' E 103°48'0 0.0
2015-Apr-26 18:32N 01°15' E 103°48'0 0.0
2015-Apr-26 17:19N 01°15' E 103°48'0 0.0
2015-Apr-26 16:31N 01°15' E 103°48'0 0.0
2015-Apr-26 15:30N 01°15' E 103°48'0 0.0
2015-Apr-26 14:33N 01°15' E 103°48'6 0.7
2015-Apr-26 06:23N 01°18' E 103°43'0 0.0
2015-Apr-26 05:17N 01°18' E 103°43'0 0.0
2015-Apr-26 04:33N 01°18' E 103°43'0 0.0
2015-Apr-26 03:26N 01°18' E 103°43'0 0.0
2015-Apr-26 02:33N 01°18' E 103°43'0 0.0
2015-Apr-26 01:33N 01°18' E 103°43'0 0.0
2015-Apr-26 00:33N 01°18' E 103°43'1 0.5
2015-Apr-25 23:30N 01°18' E 103°44'8 7.7
2015-Apr-25 22:29N 01°13' E 103°49'7 7.7
2015-Apr-25 21:33N 01°14' E 103°56'1211.6
2015-Apr-25 20:33N 01°17' E 104°08'  
2015-Apr-17 14:12N 24°53' E 119°41'1419.1
2015-Apr-17 13:28N 25°02' E 119°53'  

Dump ship's entire track history